createdAt,value
2022-12-14T00:11:55.364Z,8.43
2022-12-14T00:14:23.963Z,8.47
2022-12-14T00:16:52.441Z,7.70
2022-12-14T00:19:20.854Z,9.63
2022-12-14T00:21:49.270Z,7.97
2022-12-14T00:24:17.723Z,7.67
2022-12-14T00:26:46.387Z,8.43
2022-12-14T00:29:16.247Z,8.57
2022-12-14T00:31:44.783Z,9.53
2022-12-14T00:34:17.342Z,10.00
2022-12-14T00:36:46.652Z,9.73
2022-12-14T00:39:15.182Z,7.60
2022-12-14T00:41:44.491Z,7.53
2022-12-14T00:44:12.862Z,9.30
2022-12-14T00:46:42.678Z,8.47
2022-12-14T00:49:11.696Z,8.07
2022-12-14T00:51:40.279Z,9.27
2022-12-14T00:54:08.766Z,9.03
2022-12-14T00:56:37.275Z,7.97
2022-12-14T00:59:05.699Z,9.10
2022-12-14T01:01:34.253Z,8.93
2022-12-14T01:04:18.068Z,8.80
2022-12-14T01:06:47.979Z,8.90
2022-12-14T01:09:17.133Z,8.40
2022-12-14T01:11:45.975Z,8.73
2022-12-14T01:14:16.987Z,8.63
2022-12-14T01:16:45.943Z,8.87
2022-12-14T01:19:16.259Z,8.00
2022-12-14T01:21:44.685Z,8.63
2022-12-14T01:24:13.257Z,9.63
2022-12-14T01:26:41.716Z,9.57
2022-12-14T01:29:11.857Z,8.07
2022-12-14T01:31:40.513Z,7.43
2022-12-14T01:34:09.086Z,9.13
2022-12-14T01:36:39.934Z,9.47
2022-12-14T01:39:13.573Z,8.47
2022-12-14T01:41:44.108Z,9.83
2022-12-14T01:44:54.443Z,8.97
2022-12-14T01:47:29.327Z,9.10
2022-12-14T01:50:03.171Z,8.30
2022-12-14T01:52:38.121Z,10.13
2022-12-14T01:55:11.106Z,9.10
2022-12-14T01:57:46.362Z,8.70
2022-12-14T02:00:16.923Z,9.63
2022-12-14T02:02:49.528Z,9.83
2022-12-14T02:05:19.390Z,9.50
2022-12-14T02:07:50.991Z,8.73
2022-12-14T02:10:20.107Z,9.47
2022-12-14T02:12:53.791Z,8.53
2022-12-14T02:15:22.794Z,8.83
2022-12-14T02:17:51.937Z,8.77
2022-12-14T02:20:23.503Z,8.37
2022-12-14T02:23:28.736Z,9.23
2022-12-14T02:26:29.738Z,8.33
2022-12-14T02:29:32.699Z,8.30
2022-12-14T02:32:12.051Z,8.97
2022-12-14T02:34:51.525Z,7.77
2022-12-14T02:37:24.926Z,8.47
2022-12-14T02:40:03.679Z,8.90
2022-12-14T02:42:42.076Z,9.13
2022-12-14T02:45:18.755Z,9.23
2022-12-14T02:47:54.713Z,8.53
2022-12-14T02:50:26.944Z,8.33
2022-12-14T02:53:04.547Z,8.27
2022-12-14T02:55:37.131Z,9.23
2022-12-14T02:58:08.507Z,9.10
2022-12-14T03:00:39.276Z,9.90
2022-12-14T03:03:08.625Z,8.93
2022-12-14T03:05:37.436Z,9.57
2022-12-14T03:08:08.179Z,8.17
2022-12-14T03:10:40.774Z,9.03
2022-12-14T03:13:17.505Z,9.50
2022-12-14T03:15:52.916Z,8.50
2022-12-14T03:18:25.383Z,9.53
2022-12-14T03:20:56.435Z,9.10
2022-12-14T03:23:30.417Z,8.10
2022-12-14T03:26:07.971Z,9.50
2022-12-14T03:28:43.014Z,9.30
2022-12-14T03:31:17.000Z,7.90
2022-12-14T03:33:47.788Z,8.33
2022-12-14T03:36:21.271Z,8.87
2022-12-14T03:38:53.896Z,9.10
2022-12-14T03:41:29.823Z,9.07
2022-12-14T03:44:08.819Z,8.47
2022-12-14T03:46:44.581Z,8.40
2022-12-14T03:49:19.772Z,8.83
2022-12-14T03:51:58.404Z,8.27
2022-12-14T03:54:38.431Z,7.23
2022-12-14T03:57:12.331Z,9.40
2022-12-14T03:59:50.697Z,9.23
2022-12-14T04:02:27.835Z,9.03
2022-12-14T04:05:01.555Z,7.97
2022-12-14T04:07:39.540Z,9.00
2022-12-14T04:10:26.814Z,8.93
2022-12-14T04:13:20.213Z,10.47
2022-12-14T04:16:08.785Z,8.60
2022-12-14T04:19:00.289Z,8.70
2022-12-14T04:21:40.226Z,8.33
2022-12-14T04:24:32.823Z,8.30
2022-12-14T04:27:07.345Z,7.60
2022-12-14T04:29:52.054Z,8.03
2022-12-14T04:32:25.896Z,8.33
2022-12-14T04:35:00.081Z,8.73
2022-12-14T04:37:29.909Z,8.27
2022-12-14T04:40:05.223Z,9.30
2022-12-14T04:42:36.750Z,10.30
2022-12-14T04:45:10.403Z,8.47
2022-12-14T04:47:46.084Z,8.60
2022-12-14T04:50:23.849Z,9.00
2022-12-14T04:52:57.654Z,8.60
2022-12-14T04:55:34.012Z,8.10
2022-12-14T04:58:08.574Z,8.27
2022-12-14T05:00:43.830Z,8.63
2022-12-14T05:03:22.999Z,8.97
2022-12-14T05:06:00.235Z,10.10
2022-12-14T05:08:47.592Z,7.77
2022-12-14T05:11:52.117Z,8.17
2022-12-14T05:14:18.827Z,9.47
2022-12-14T05:16:49.668Z,8.57
2022-12-14T05:19:18.202Z,9.83
2022-12-14T05:21:50.774Z,9.03
2022-12-14T05:24:19.226Z,8.50
2022-12-14T05:26:47.704Z,9.50
2022-12-14T05:29:17.755Z,8.50
2022-12-14T05:31:49.401Z,8.93
2022-12-14T05:34:18.722Z,9.33
2022-12-14T05:36:48.662Z,9.40
2022-12-14T05:39:18.053Z,10.17
2022-12-14T05:41:46.551Z,8.20
2022-12-14T05:44:15.238Z,8.80
2022-12-14T05:46:43.711Z,8.63
2022-12-14T05:49:12.331Z,8.83
2022-12-14T05:51:40.866Z,9.40
2022-12-14T05:54:11.167Z,7.97
2022-12-14T05:56:39.698Z,9.17
2022-12-14T05:59:08.123Z,8.77
2022-12-14T06:01:36.756Z,8.70
2022-12-14T06:04:05.461Z,9.77
2022-12-14T06:06:34.845Z,10.03
2022-12-14T06:09:06.489Z,9.23
2022-12-14T06:11:39.089Z,8.63
2022-12-14T06:14:08.708Z,9.37
2022-12-14T06:16:37.798Z,8.33
2022-12-14T06:19:06.783Z,8.37
2022-12-14T06:21:37.734Z,9.17
2022-12-14T06:24:07.619Z,9.83
2022-12-14T06:26:41.862Z,8.50
2022-12-14T06:29:16.528Z,8.90
2022-12-14T06:31:45.345Z,9.47
2022-12-14T06:34:21.247Z,9.03
2022-12-14T06:36:53.355Z,9.33
2022-12-14T06:39:21.832Z,9.60
2022-12-14T06:41:52.108Z,8.77
2022-12-14T06:44:20.962Z,9.80
2022-12-14T06:46:49.773Z,7.93
2022-12-14T06:49:18.719Z,9.57
2022-12-14T06:51:47.208Z,9.13
2022-12-14T06:54:17.028Z,7.90
2022-12-14T06:56:47.038Z,8.50
2022-12-14T06:59:17.648Z,8.53
2022-12-14T07:01:50.383Z,8.23
2022-12-14T07:04:21.239Z,9.60
2022-12-14T07:06:50.064Z,8.43
2022-12-14T07:09:18.628Z,8.40
2022-12-14T07:11:47.202Z,8.93
2022-12-14T07:14:18.428Z,8.47
2022-12-14T07:16:48.671Z,8.60
2022-12-14T07:19:18.350Z,8.85
2022-12-14T07:21:46.934Z,8.32
2022-12-14T07:24:15.544Z,9.93
2022-12-14T07:26:44.085Z,8.63
2022-12-14T07:29:14.986Z,9.10
2022-12-14T07:31:44.812Z,9.27
2022-12-14T07:34:18.940Z,9.57
2022-12-14T07:36:50.383Z,7.73
2022-12-14T07:39:18.916Z,11.13
2022-12-14T07:41:48.970Z,13.45
2022-12-14T07:44:22.659Z,13.47
2022-12-14T07:46:53.742Z,11.95
2022-12-14T07:49:22.766Z,12.20
2022-12-14T07:51:52.932Z,13.20
2022-12-14T07:54:21.520Z,13.27
2022-12-14T07:56:50.936Z,15.60
2022-12-14T07:59:20.973Z,15.70
2022-12-14T08:01:49.573Z,17.37
2022-12-14T08:04:21.012Z,15.67
2022-12-14T08:06:50.060Z,16.80
2022-12-14T08:09:20.141Z,13.20
2022-12-14T08:11:48.836Z,13.27
2022-12-14T08:14:19.335Z,12.33
2022-12-14T08:16:49.437Z,9.80
2022-12-14T08:19:20.333Z,9.88
2022-12-14T08:21:48.783Z,10.20
2022-12-14T08:24:17.850Z,10.88
2022-12-14T08:26:49.183Z,11.27
2022-12-14T08:29:18.743Z,10.83
2022-12-14T08:31:47.452Z,9.50
2022-12-14T08:34:21.911Z,10.38
2022-12-14T08:36:51.728Z,10.73
2022-12-14T08:39:20.264Z,8.88
2022-12-14T08:41:48.913Z,13.00
2022-12-14T08:44:18.661Z,11.82
2022-12-14T08:46:47.774Z,12.63
2022-12-14T08:49:16.646Z,13.93
2022-12-14T08:51:45.161Z,15.07
2022-12-14T08:54:14.946Z,17.55
2022-12-14T08:56:43.418Z,15.97
2022-12-14T08:59:24.669Z,13.03
2022-12-14T09:02:00.928Z,11.68
2022-12-14T09:04:29.744Z,11.60
2022-12-14T09:06:58.337Z,11.17
2022-12-14T09:09:28.332Z,10.03
2022-12-14T09:11:56.984Z,9.93
2022-12-14T09:14:25.667Z,9.68
2022-12-14T09:16:54.162Z,10.67
2022-12-14T09:19:22.710Z,11.37
2022-12-14T09:21:51.616Z,10.93
2022-12-14T09:24:20.986Z,10.37
2022-12-14T09:26:51.420Z,10.90
2022-12-14T09:29:20.885Z,9.53
2022-12-14T09:31:49.360Z,8.97
2022-12-14T09:34:17.992Z,8.30
2022-12-14T09:36:47.010Z,8.43
2022-12-14T09:39:15.593Z,10.00
2022-12-14T09:42:00.801Z,8.47
2022-12-14T09:44:44.581Z,9.00
2022-12-14T09:47:17.366Z,9.10
2022-12-14T09:49:51.817Z,8.43
2022-12-14T09:52:23.782Z,9.03
2022-12-14T09:54:53.450Z,8.87
2022-12-14T09:57:30.018Z,7.57
2022-12-14T09:59:58.524Z,10.37
2022-12-14T10:02:37.887Z,8.70
2022-12-14T10:05:32.683Z,9.43
2022-12-14T10:08:08.083Z,8.77
2022-12-14T10:10:45.827Z,8.97
2022-12-14T10:13:26.957Z,8.13
2022-12-14T10:16:05.063Z,8.77
2022-12-14T10:19:00.940Z,9.77
2022-12-14T10:21:42.476Z,9.37
2022-12-14T10:24:17.461Z,9.43
2022-12-14T10:26:50.489Z,9.03
2022-12-14T10:29:29.051Z,8.67
2022-12-14T10:32:07.618Z,8.97
2022-12-14T10:34:37.355Z,8.13
2022-12-14T10:37:20.968Z,8.30
2022-12-14T10:39:57.895Z,8.60
2022-12-14T10:42:35.108Z,8.67
2022-12-14T10:45:51.602Z,7.77
2022-12-14T10:48:27.119Z,6.20
2022-12-14T10:51:01.770Z,7.37
2022-12-14T10:53:40.829Z,8.50
2022-12-14T10:56:15.402Z,6.57
2022-12-14T10:58:44.007Z,8.60
2022-12-14T11:01:16.612Z,7.47
2022-12-14T11:03:50.423Z,7.63
2022-12-14T11:06:21.110Z,7.80
2022-12-14T11:08:50.727Z,6.63
2022-12-14T11:11:22.524Z,8.10
2022-12-14T11:13:53.338Z,7.90
2022-12-14T11:16:35.740Z,6.57
2022-12-14T11:19:06.717Z,7.53
2022-12-14T11:21:37.531Z,7.37
2022-12-14T11:24:07.263Z,8.50
2022-12-14T11:26:38.976Z,7.00
2022-12-14T11:29:17.411Z,7.63
2022-12-14T11:31:49.278Z,8.30
2022-12-14T11:34:26.734Z,7.87
2022-12-14T11:36:55.243Z,8.07
2022-12-14T11:39:25.863Z,8.00
2022-12-14T11:42:02.828Z,8.23
2022-12-14T11:44:34.180Z,8.43
2022-12-14T11:47:08.220Z,7.60
2022-12-14T11:49:45.030Z,7.60
2022-12-14T11:52:17.168Z,6.97
2022-12-14T11:54:49.722Z,8.57
2022-12-14T11:57:25.985Z,8.50
2022-12-14T11:59:57.716Z,9.07
2022-12-14T12:02:30.695Z,8.30
2022-12-14T12:05:12.364Z,8.27
2022-12-14T12:07:44.286Z,9.03
2022-12-14T12:10:20.553Z,8.30
2022-12-14T12:12:54.662Z,9.17
2022-12-14T12:15:27.245Z,7.83
2022-12-14T12:18:02.147Z,7.07
2022-12-14T12:20:36.372Z,7.53
2022-12-14T12:23:12.771Z,7.37
2022-12-14T12:25:44.684Z,7.20
2022-12-14T12:28:21.070Z,7.67
2022-12-14T12:30:53.151Z,7.80
2022-12-14T12:33:32.361Z,8.30
2022-12-14T12:36:04.822Z,7.77
2022-12-14T12:38:49.744Z,8.53
2022-12-14T12:41:28.134Z,8.57
2022-12-14T12:44:01.918Z,7.30
2022-12-14T12:46:37.889Z,7.77
2022-12-14T12:49:15.724Z,8.60
2022-12-14T12:51:49.512Z,9.03
2022-12-14T12:54:23.979Z,8.37
2022-12-14T12:56:55.775Z,7.97
2022-12-14T12:59:32.355Z,8.33
2022-12-14T13:02:12.477Z,7.70
2022-12-14T13:04:50.774Z,7.70
2022-12-14T13:07:29.289Z,8.27
2022-12-14T13:10:05.631Z,7.17
2022-12-14T13:12:40.188Z,6.27
2022-12-14T13:15:19.163Z,5.33
2022-12-14T13:17:51.838Z,6.13
2022-12-14T13:20:25.935Z,5.53
2022-12-14T13:22:55.171Z,5.33
2022-12-14T13:25:28.226Z,6.40
2022-12-14T13:28:13.789Z,5.23
2022-12-14T13:30:55.080Z,4.67
2022-12-14T13:33:45.639Z,6.20
2022-12-14T13:36:41.870Z,4.97
2022-12-14T13:39:52.723Z,4.53
2022-12-14T13:42:32.798Z,5.13
2022-12-14T13:45:03.681Z,6.13
2022-12-14T13:47:37.053Z,5.33
2022-12-14T13:53:01.438Z,5.93
2022-12-14T13:55:35.383Z,6.03
2022-12-14T13:58:11.066Z,6.33
2022-12-14T14:00:58.108Z,6.87
2022-12-14T14:03:44.531Z,6.43
2022-12-14T14:06:19.175Z,5.90
2022-12-14T14:08:50.859Z,6.90
2022-12-14T14:11:44.864Z,6.43
2022-12-14T14:14:26.376Z,6.37
2022-12-14T14:16:58.177Z,6.73
2022-12-14T14:19:28.770Z,6.57
2022-12-14T14:22:26.275Z,6.03
2022-12-14T14:24:59.317Z,6.47
2022-12-14T14:27:37.423Z,6.27
2022-12-14T14:30:23.776Z,7.43
2022-12-14T14:32:54.072Z,7.43
2022-12-14T14:35:26.776Z,6.23
2022-12-14T14:37:59.276Z,6.67
2022-12-14T14:41:14.744Z,6.97
2022-12-14T14:43:28.516Z,6.47
2022-12-14T14:46:00.687Z,6.03
2022-12-14T14:48:35.091Z,7.23
2022-12-14T14:51:07.483Z,6.50
2022-12-14T14:53:36.772Z,7.90
2022-12-14T14:56:26.583Z,7.00
2022-12-14T14:59:35.766Z,6.17
2022-12-14T15:02:21.160Z,6.10
2022-12-14T15:04:56.932Z,6.53
2022-12-14T15:07:29.670Z,6.43
2022-12-14T15:10:06.779Z,6.80
2022-12-14T15:12:44.109Z,6.93
2022-12-14T15:15:20.144Z,8.17
2022-12-14T15:17:49.697Z,7.20
2022-12-14T15:20:23.930Z,7.43
2022-12-14T15:22:55.155Z,7.30
2022-12-14T15:25:25.946Z,8.20
2022-12-14T15:27:59.259Z,8.60
2022-12-14T15:30:29.323Z,7.83
2022-12-14T15:33:00.526Z,7.13
2022-12-14T15:35:32.523Z,7.83
2022-12-14T15:38:06.107Z,7.07
2022-12-14T15:40:35.320Z,6.30
2022-12-14T15:43:17.944Z,8.23
2022-12-14T15:45:50.292Z,7.47
2022-12-14T15:48:24.636Z,7.47
2022-12-14T15:50:55.527Z,7.70
2022-12-14T15:53:32.894Z,8.87
2022-12-14T15:56:11.540Z,10.53
2022-12-14T15:58:42.315Z,9.80
2022-12-14T16:01:14.343Z,11.07
2022-12-14T16:03:47.505Z,10.27
2022-12-14T16:06:18.218Z,10.90
2022-12-14T16:08:52.171Z,9.97
2022-12-14T16:11:26.380Z,9.87
2022-12-14T16:13:59.389Z,11.90
2022-12-14T16:16:28.095Z,10.03
2022-12-14T16:19:13.951Z,10.13
2022-12-14T16:21:49.548Z,11.33
2022-12-14T16:24:25.276Z,12.73
2022-12-14T16:26:58.961Z,12.13
2022-12-14T16:29:30.523Z,9.63
2022-12-14T16:32:04.886Z,11.50
2022-12-14T16:34:34.154Z,9.77
2022-12-14T16:37:31.541Z,11.23
2022-12-14T16:39:54.279Z,12.67
2022-12-14T16:42:24.751Z,14.30
2022-12-14T16:44:54.946Z,13.07
2022-12-14T16:47:49.571Z,14.47
2022-12-14T16:53:17.687Z,13.17
2022-12-14T16:56:04.061Z,16.50
2022-12-14T16:58:33.196Z,21.50
2022-12-14T17:01:06.239Z,21.50
2022-12-14T17:03:36.592Z,20.43
2022-12-14T17:06:07.804Z,22.57
2022-12-14T17:08:37.275Z,20.23
2022-12-14T17:11:06.472Z,19.07
2022-12-14T17:13:34.890Z,15.50
2022-12-14T17:16:08.203Z,13.90
2022-12-14T17:18:40.211Z,15.93
2022-12-14T17:21:15.032Z,12.27
2022-12-14T17:23:44.937Z,14.73
2022-12-14T17:26:20.629Z,16.57
2022-12-14T17:28:49.595Z,17.23
